sensor_id;sensor_type;location;lat;lon;timestamp;P1;durP1;ratioP1;P2;durP2;ratioP2
48767;SDS011;34933;40.968;14.538;2022-12-18T00:02:15;10.13;;;6.72;;
48767;SDS011;34933;40.968;14.538;2022-12-18T00:04:59;12.93;;;6.43;;
48767;SDS011;34933;40.968;14.538;2022-12-18T00:07:44;9.40;;;5.88;;
48767;SDS011;34933;40.968;14.538;2022-12-18T00:10:29;9.35;;;6.47;;
48767;SDS011;34933;40.968;14.538;2022-12-18T00:13:13;9.95;;;5.85;;
48767;SDS011;34933;40.968;14.538;2022-12-18T00:16:12;10.88;;;6.13;;
48767;SDS011;34933;40.968;14.538;2022-12-18T00:19:04;9.95;;;6.43;;
48767;SDS011;34933;40.968;14.538;2022-12-18T00:21:49;12.57;;;6.57;;
48767;SDS011;34933;40.968;14.538;2022-12-18T00:24:34;9.40;;;6.18;;
48767;SDS011;34933;40.968;14.538;2022-12-18T00:27:18;7.40;;;5.93;;
48767;SDS011;34933;40.968;14.538;2022-12-18T00:30:03;9.18;;;6.40;;
48767;SDS011;34933;40.968;14.538;2022-12-18T00:32:48;10.57;;;6.80;;
48767;SDS011;34933;40.968;14.538;2022-12-18T00:35:33;12.70;;;7.40;;
48767;SDS011;34933;40.968;14.538;2022-12-18T00:38:17;13.60;;;7.72;;
48767;SDS011;34933;40.968;14.538;2022-12-18T00:41:02;11.05;;;7.60;;
48767;SDS011;34933;40.968;14.538;2022-12-18T00:43:47;9.63;;;7.65;;
48767;SDS011;34933;40.968;14.538;2022-12-18T00:46:31;10.88;;;7.13;;
48767;SDS011;34933;40.968;14.538;2022-12-18T00:49:17;10.90;;;6.95;;
48767;SDS011;34933;40.968;14.538;2022-12-18T00:52:03;8.02;;;6.43;;
48767;SDS011;34933;40.968;14.538;2022-12-18T00:54:47;10.13;;;6.07;;
48767;SDS011;34933;40.968;14.538;2022-12-18T00:57:32;8.95;;;6.45;;
48767;SDS011;34933;40.968;14.538;2022-12-18T01:00:17;9.60;;;6.35;;
48767;SDS011;34933;40.968;14.538;2022-12-18T01:03:01;11.25;;;6.57;;
48767;SDS011;34933;40.968;14.538;2022-12-18T01:05:46;8.45;;;6.50;;
48767;SDS011;34933;40.968;14.538;2022-12-18T01:08:31;11.32;;;5.80;;
48767;SDS011;34933;40.968;14.538;2022-12-18T01:11:16;7.97;;;5.93;;
48767;SDS011;34933;40.968;14.538;2022-12-18T01:14:03;7.95;;;6.43;;
48767;SDS011;34933;40.968;14.538;2022-12-18T01:16:48;8.18;;;6.20;;
48767;SDS011;34933;40.968;14.538;2022-12-18T01:19:32;9.77;;;6.32;;
48767;SDS011;34933;40.968;14.538;2022-12-18T01:22:17;11.65;;;5.60;;
48767;SDS011;34933;40.968;14.538;2022-12-18T01:25:03;11.55;;;5.78;;
48767;SDS011;34933;40.968;14.538;2022-12-18T01:27:49;10.77;;;5.60;;
48767;SDS011;34933;40.968;14.538;2022-12-18T01:30:33;10.52;;;5.70;;
48767;SDS011;34933;40.968;14.538;2022-12-18T01:33:19;8.75;;;5.65;;
48767;SDS011;34933;40.968;14.538;2022-12-18T01:36:03;7.57;;;4.95;;
48767;SDS011;34933;40.968;14.538;2022-12-18T01:38:49;10.35;;;4.70;;
48767;SDS011;34933;40.968;14.538;2022-12-18T01:41:34;9.77;;;5.47;;
48767;SDS011;34933;40.968;14.538;2022-12-18T01:47:33;6.03;;;4.72;;
48767;SDS011;34933;40.968;14.538;2022-12-18T01:50:32;5.75;;;4.35;;
48767;SDS011;34933;40.968;14.538;2022-12-18T01:53:22;6.28;;;4.80;;
48767;SDS011;34933;40.968;14.538;2022-12-18T01:56:07;6.45;;;4.07;;
48767;SDS011;34933;40.968;14.538;2022-12-18T01:59:05;9.32;;;4.00;;
48767;SDS011;34933;40.968;14.538;2022-12-18T02:01:54;7.35;;;4.05;;
48767;SDS011;34933;40.968;14.538;2022-12-18T02:04:38;7.90;;;4.47;;
48767;SDS011;34933;40.968;14.538;2022-12-18T02:10:19;5.35;;;4.47;;
48767;SDS011;34933;40.968;14.538;2022-12-18T02:22:17;8.05;;;3.80;;
48767;SDS011;34933;40.968;14.538;2022-12-18T02:28:20;6.00;;;3.58;;
48767;SDS011;34933;40.968;14.538;2022-12-18T02:31:10;5.93;;;3.50;;
48767;SDS011;34933;40.968;14.538;2022-12-18T02:33:59;5.80;;;3.03;;
48767;SDS011;34933;40.968;14.538;2022-12-18T02:36:45;6.22;;;2.95;;
48767;SDS011;34933;40.968;14.538;2022-12-18T02:39:32;3.50;;;2.50;;
48767;SDS011;34933;40.968;14.538;2022-12-18T02:42:21;5.00;;;2.58;;
48767;SDS011;34933;40.968;14.538;2022-12-18T02:45:06;3.13;;;2.50;;
48767;SDS011;34933;40.968;14.538;2022-12-18T02:47:53;3.88;;;2.47;;
48767;SDS011;34933;40.968;14.538;2022-12-18T02:50:41;3.08;;;2.70;;
48767;SDS011;34933;40.968;14.538;2022-12-18T02:56:29;5.43;;;2.50;;
48767;SDS011;34933;40.968;14.538;2022-12-18T02:59:34;4.10;;;2.20;;
48767;SDS011;34933;40.968;14.538;2022-12-18T03:02:48;3.03;;;2.60;;
48767;SDS011;34933;40.968;14.538;2022-12-18T03:08:42;6.45;;;2.60;;
48767;SDS011;34933;40.968;14.538;2022-12-18T03:11:32;5.65;;;2.35;;
48767;SDS011;34933;40.968;14.538;2022-12-18T03:14:39;4.55;;;2.35;;
48767;SDS011;34933;40.968;14.538;2022-12-18T03:17:27;3.90;;;2.53;;
48767;SDS011;34933;40.968;14.538;2022-12-18T03:20:17;3.85;;;2.65;;
48767;SDS011;34933;40.968;14.538;2022-12-18T03:23:13;3.30;;;2.50;;
48767;SDS011;34933;40.968;14.538;2022-12-18T03:26:10;4.80;;;2.90;;
48767;SDS011;34933;40.968;14.538;2022-12-18T03:28:59;4.32;;;2.75;;
48767;SDS011;34933;40.968;14.538;2022-12-18T03:31:54;4.13;;;2.33;;
48767;SDS011;34933;40.968;14.538;2022-12-18T03:34:44;4.85;;;2.03;;
48767;SDS011;34933;40.968;14.538;2022-12-18T03:37:34;2.40;;;2.20;;
48767;SDS011;34933;40.968;14.538;2022-12-18T03:40:20;3.38;;;2.42;;
48767;SDS011;34933;40.968;14.538;2022-12-18T03:43:16;3.60;;;2.10;;
48767;SDS011;34933;40.968;14.538;2022-12-18T03:46:27;3.50;;;2.15;;
48767;SDS011;34933;40.968;14.538;2022-12-18T03:52:26;7.85;;;2.30;;
48767;SDS011;34933;40.968;14.538;2022-12-18T03:55:33;2.83;;;2.38;;
48767;SDS011;34933;40.968;14.538;2022-12-18T03:58:23;3.00;;;1.88;;
48767;SDS011;34933;40.968;14.538;2022-12-18T04:01:20;4.40;;;2.22;;
48767;SDS011;34933;40.968;14.538;2022-12-18T04:04:12;4.68;;;1.90;;
48767;SDS011;34933;40.968;14.538;2022-12-18T04:06:58;3.58;;;2.08;;
48767;SDS011;34933;40.968;14.538;2022-12-18T04:09:44;5.30;;;2.25;;
48767;SDS011;34933;40.968;14.538;2022-12-18T04:12:31;2.60;;;2.40;;
48767;SDS011;34933;40.968;14.538;2022-12-18T04:15:16;5.35;;;2.47;;
48767;SDS011;34933;40.968;14.538;2022-12-18T04:18:01;2.90;;;1.95;;
48767;SDS011;34933;40.968;14.538;2022-12-18T04:20:54;7.35;;;2.50;;
48767;SDS011;34933;40.968;14.538;2022-12-18T04:23:40;6.25;;;2.15;;
48767;SDS011;34933;40.968;14.538;2022-12-18T04:26:25;4.57;;;2.17;;
48767;SDS011;34933;40.968;14.538;2022-12-18T04:29:48;4.55;;;2.13;;
48767;SDS011;34933;40.968;14.538;2022-12-18T04:32:35;2.47;;;1.88;;
48767;SDS011;34933;40.968;14.538;2022-12-18T04:35:20;1.75;;;1.60;;
48767;SDS011;34933;40.968;14.538;2022-12-18T04:38:05;1.85;;;1.52;;
48767;SDS011;34933;40.968;14.538;2022-12-18T04:40:52;1.85;;;1.75;;
48767;SDS011;34933;40.968;14.538;2022-12-18T04:43:42;7.85;;;2.50;;
48767;SDS011;34933;40.968;14.538;2022-12-18T04:46:27;4.07;;;2.40;;
48767;SDS011;34933;40.968;14.538;2022-12-18T04:49:11;3.47;;;1.83;;
48767;SDS011;34933;40.968;14.538;2022-12-18T04:51:56;3.10;;;2.17;;
48767;SDS011;34933;40.968;14.538;2022-12-18T04:54:41;6.20;;;2.17;;
48767;SDS011;34933;40.968;14.538;2022-12-18T04:57:25;4.95;;;2.10;;
48767;SDS011;34933;40.968;14.538;2022-12-18T05:00:10;4.70;;;2.00;;
48767;SDS011;34933;40.968;14.538;2022-12-18T05:02:55;7.93;;;2.22;;
48767;SDS011;34933;40.968;14.538;2022-12-18T05:05:40;3.58;;;2.15;;
48767;SDS011;34933;40.968;14.538;2022-12-18T05:08:24;4.82;;;2.17;;
48767;SDS011;34933;40.968;14.538;2022-12-18T05:11:11;5.28;;;2.38;;
48767;SDS011;34933;40.968;14.538;2022-12-18T05:13:59;4.45;;;2.60;;
48767;SDS011;34933;40.968;14.538;2022-12-18T05:16:43;2.28;;;1.90;;
48767;SDS011;34933;40.968;14.538;2022-12-18T05:19:29;3.22;;;1.90;;
48767;SDS011;34933;40.968;14.538;2022-12-18T05:22:13;4.20;;;1.88;;
48767;SDS011;34933;40.968;14.538;2022-12-18T05:24:58;2.78;;;2.17;;
48767;SDS011;34933;40.968;14.538;2022-12-18T05:27:43;4.85;;;2.90;;
48767;SDS011;34933;40.968;14.538;2022-12-18T05:30:27;4.57;;;2.20;;
48767;SDS011;34933;40.968;14.538;2022-12-18T05:33:12;2.58;;;2.38;;
48767;SDS011;34933;40.968;14.538;2022-12-18T05:35:57;5.07;;;3.40;;
48767;SDS011;34933;40.968;14.538;2022-12-18T05:38:45;3.28;;;2.58;;
48767;SDS011;34933;40.968;14.538;2022-12-18T05:41:30;2.85;;;2.42;;
48767;SDS011;34933;40.968;14.538;2022-12-18T05:44:14;5.43;;;2.65;;
48767;SDS011;34933;40.968;14.538;2022-12-18T05:46:59;5.18;;;2.83;;
48767;SDS011;34933;40.968;14.538;2022-12-18T05:49:44;11.07;;;5.97;;
48767;SDS011;34933;40.968;14.538;2022-12-18T05:52:28;9.20;;;6.25;;
48767;SDS011;34933;40.968;14.538;2022-12-18T05:55:14;13.20;;;5.93;;
48767;SDS011;34933;40.968;14.538;2022-12-18T05:57:58;10.43;;;6.25;;
48767;SDS011;34933;40.968;14.538;2022-12-18T06:00:44;12.50;;;7.63;;
48767;SDS011;34933;40.968;14.538;2022-12-18T06:03:29;16.05;;;9.85;;
48767;SDS011;34933;40.968;14.538;2022-12-18T06:06:15;11.77;;;9.23;;
48767;SDS011;34933;40.968;14.538;2022-12-18T06:09:01;11.88;;;9.88;;
48767;SDS011;34933;40.968;14.538;2022-12-18T06:11:47;15.50;;;9.98;;
48767;SDS011;34933;40.968;14.538;2022-12-18T06:14:32;9.93;;;8.02;;
48767;SDS011;34933;40.968;14.538;2022-12-18T06:17:17;18.13;;;12.25;;
48767;SDS011;34933;40.968;14.538;2022-12-18T06:20:02;14.15;;;9.00;;
48767;SDS011;34933;40.968;14.538;2022-12-18T06:22:48;16.55;;;11.57;;
48767;SDS011;34933;40.968;14.538;2022-12-18T06:25:36;22.02;;;16.88;;
48767;SDS011;34933;40.968;14.538;2022-12-18T06:28:21;24.45;;;18.73;;
48767;SDS011;34933;40.968;14.538;2022-12-18T06:31:06;32.67;;;19.13;;
48767;SDS011;34933;40.968;14.538;2022-12-18T06:33:51;27.02;;;18.08;;
48767;SDS011;34933;40.968;14.538;2022-12-18T06:36:35;26.00;;;18.38;;
48767;SDS011;34933;40.968;14.538;2022-12-18T06:39:20;22.58;;;17.27;;
48767;SDS011;34933;40.968;14.538;2022-12-18T06:42:04;21.45;;;16.95;;
48767;SDS011;34933;40.968;14.538;2022-12-18T06:44:49;30.92;;;19.35;;
48767;SDS011;34933;40.968;14.538;2022-12-18T06:47:34;25.05;;;17.95;;
48767;SDS011;34933;40.968;14.538;2022-12-18T06:50:18;22.92;;;17.60;;
48767;SDS011;34933;40.968;14.538;2022-12-18T06:53:03;20.58;;;16.40;;
48767;SDS011;34933;40.968;14.538;2022-12-18T06:55:47;21.88;;;16.38;;
48767;SDS011;34933;40.968;14.538;2022-12-18T06:58:32;21.95;;;16.25;;
48767;SDS011;34933;40.968;14.538;2022-12-18T07:01:17;20.58;;;17.85;;
48767;SDS011;34933;40.968;14.538;2022-12-18T07:04:01;27.45;;;19.73;;
48767;SDS011;34933;40.968;14.538;2022-12-18T07:06:46;25.88;;;19.95;;
48767;SDS011;34933;40.968;14.538;2022-12-18T07:09:30;23.30;;;18.23;;
48767;SDS011;34933;40.968;14.538;2022-12-18T07:12:15;25.48;;;19.35;;
48767;SDS011;34933;40.968;14.538;2022-12-18T07:15:00;25.25;;;19.73;;
48767;SDS011;34933;40.968;14.538;2022-12-18T07:17:45;24.08;;;19.30;;
48767;SDS011;34933;40.968;14.538;2022-12-18T07:20:30;24.25;;;18.33;;
48767;SDS011;34933;40.968;14.538;2022-12-18T07:23:14;26.10;;;18.42;;
48767;SDS011;34933;40.968;14.538;2022-12-18T07:26:18;24.42;;;18.85;;
48767;SDS011;34933;40.968;14.538;2022-12-18T07:29:03;25.70;;;20.10;;
48767;SDS011;34933;40.968;14.538;2022-12-18T07:31:48;29.88;;;20.23;;
48767;SDS011;34933;40.968;14.538;2022-12-18T07:34:32;35.47;;;27.55;;
48767;SDS011;34933;40.968;14.538;2022-12-18T07:37:17;32.80;;;26.20;;
48767;SDS011;34933;40.968;14.538;2022-12-18T07:40:02;32.05;;;24.50;;
48767;SDS011;34933;40.968;14.538;2022-12-18T07:42:46;33.33;;;24.10;;
48767;SDS011;34933;40.968;14.538;2022-12-18T07:45:31;31.70;;;22.73;;
48767;SDS011;34933;40.968;14.538;2022-12-18T07:48:15;30.25;;;19.98;;
48767;SDS011;34933;40.968;14.538;2022-12-18T07:51:01;23.90;;;17.65;;
48767;SDS011;34933;40.968;14.538;2022-12-18T07:53:47;23.90;;;20.05;;
48767;SDS011;34933;40.968;14.538;2022-12-18T07:56:32;28.52;;;18.65;;
48767;SDS011;34933;40.968;14.538;2022-12-18T07:59:17;27.52;;;19.63;;
48767;SDS011;34933;40.968;14.538;2022-12-18T08:02:02;27.58;;;20.23;;
48767;SDS011;34933;40.968;14.538;2022-12-18T08:04:47;24.92;;;17.50;;
48767;SDS011;34933;40.968;14.538;2022-12-18T08:07:31;25.58;;;18.80;;
48767;SDS011;34933;40.968;14.538;2022-12-18T08:10:16;42.50;;;29.20;;
48767;SDS011;34933;40.968;14.538;2022-12-18T08:13:01;22.30;;;16.73;;
48767;SDS011;34933;40.968;14.538;2022-12-18T08:15:45;21.27;;;15.52;;
48767;SDS011;34933;40.968;14.538;2022-12-18T08:18:34;23.33;;;16.73;;
48767;SDS011;34933;40.968;14.538;2022-12-18T08:21:20;25.98;;;17.10;;
48767;SDS011;34933;40.968;14.538;2022-12-18T08:24:08;20.55;;;13.30;;
48767;SDS011;34933;40.968;14.538;2022-12-18T08:26:54;19.63;;;13.50;;
48767;SDS011;34933;40.968;14.538;2022-12-18T08:29:41;21.13;;;12.85;;
48767;SDS011;34933;40.968;14.538;2022-12-18T08:32:25;19.38;;;11.48;;
48767;SDS011;34933;40.968;14.538;2022-12-18T08:35:11;14.60;;;12.73;;
48767;SDS011;34933;40.968;14.538;2022-12-18T08:37:56;23.63;;;15.57;;
48767;SDS011;34933;40.968;14.538;2022-12-18T08:40:40;21.38;;;13.80;;
48767;SDS011;34933;40.968;14.538;2022-12-18T08:43:25;16.38;;;12.50;;
48767;SDS011;34933;40.968;14.538;2022-12-18T08:46:32;14.77;;;10.48;;
48767;SDS011;34933;40.968;14.538;2022-12-18T08:49:19;14.70;;;10.02;;
48767;SDS011;34933;40.968;14.538;2022-12-18T08:52:03;10.02;;;7.30;;
48767;SDS011;34933;40.968;14.538;2022-12-18T08:54:48;4.50;;;1.67;;
48767;SDS011;34933;40.968;14.538;2022-12-18T08:57:32;0.75;;;0.70;;
48767;SDS011;34933;40.968;14.538;2022-12-18T09:00:17;1.42;;;1.10;;
48767;SDS011;34933;40.968;14.538;2022-12-18T09:03:02;2.20;;;1.13;;
48767;SDS011;34933;40.968;14.538;2022-12-18T09:05:47;18.95;;;3.83;;
48767;SDS011;34933;40.968;14.538;2022-12-18T09:08:32;10.98;;;2.75;;
48767;SDS011;34933;40.968;14.538;2022-12-18T09:11:24;3.30;;;1.10;;
48767;SDS011;34933;40.968;14.538;2022-12-18T09:16:54;2.90;;;1.25;;
48767;SDS011;34933;40.968;14.538;2022-12-18T09:19:38;3.33;;;1.00;;
48767;SDS011;34933;40.968;14.538;2022-12-18T09:22:23;4.40;;;1.20;;
48767;SDS011;34933;40.968;14.538;2022-12-18T09:25:07;3.58;;;1.80;;
48767;SDS011;34933;40.968;14.538;2022-12-18T09:27:52;3.10;;;1.50;;
48767;SDS011;34933;40.968;14.538;2022-12-18T09:30:40;2.28;;;1.40;;
48767;SDS011;34933;40.968;14.538;2022-12-18T09:33:26;1.48;;;1.38;;
48767;SDS011;34933;40.968;14.538;2022-12-18T09:36:12;3.00;;;1.85;;
48767;SDS011;34933;40.968;14.538;2022-12-18T09:38:58;2.95;;;1.48;;
48767;SDS011;34933;40.968;14.538;2022-12-18T09:44:31;1.70;;;0.93;;
48767;SDS011;34933;40.968;14.538;2022-12-18T09:47:22;1.95;;;1.30;;
48767;SDS011;34933;40.968;14.538;2022-12-18T09:50:33;1.90;;;1.00;;
48767;SDS011;34933;40.968;14.538;2022-12-18T09:53:22;2.72;;;2.53;;
48767;SDS011;34933;40.968;14.538;2022-12-18T09:59:01;2.40;;;0.80;;
48767;SDS011;34933;40.968;14.538;2022-12-18T10:01:46;3.22;;;2.03;;
48767;SDS011;34933;40.968;14.538;2022-12-18T10:04:31;2.20;;;2.00;;
48767;SDS011;34933;40.968;14.538;2022-12-18T10:07:19;4.60;;;1.38;;
48767;SDS011;34933;40.968;14.538;2022-12-18T10:11:00;7.57;;;2.03;;
48767;SDS011;34933;40.968;14.538;2022-12-18T10:13:31;1.55;;;1.25;;
48767;SDS011;34933;40.968;14.538;2022-12-18T10:17:13;2.58;;;1.50;;
48767;SDS011;34933;40.968;14.538;2022-12-18T10:19:59;1.52;;;1.13;;
48767;SDS011;34933;40.968;14.538;2022-12-18T10:26:06;1.50;;;1.00;;
48767;SDS011;34933;40.968;14.538;2022-12-18T10:28:53;5.07;;;1.20;;
48767;SDS011;34933;40.968;14.538;2022-12-18T10:31:38;0.82;;;0.70;;
48767;SDS011;34933;40.968;14.538;2022-12-18T10:34:23;3.13;;;1.05;;
48767;SDS011;34933;40.968;14.538;2022-12-18T10:37:10;5.22;;;0.93;;
48767;SDS011;34933;40.968;14.538;2022-12-18T10:40:14;2.80;;;1.25;;
48767;SDS011;34933;40.968;14.538;2022-12-18T10:43:03;3.95;;;1.27;;
48767;SDS011;34933;40.968;14.538;2022-12-18T10:46:31;2.15;;;1.05;;
48767;SDS011;34933;40.968;14.538;2022-12-18T10:49:00;1.55;;;0.88;;
48767;SDS011;34933;40.968;14.538;2022-12-18T10:51:45;1.15;;;0.90;;
48767;SDS011;34933;40.968;14.538;2022-12-18T10:54:30;1.67;;;0.80;;
48767;SDS011;34933;40.968;14.538;2022-12-18T10:57:17;1.92;;;1.35;;
48767;SDS011;34933;40.968;14.538;2022-12-18T11:06:20;1.85;;;0.98;;
48767;SDS011;34933;40.968;14.538;2022-12-18T11:09:59;1.90;;;1.63;;
48767;SDS011;34933;40.968;14.538;2022-12-18T11:12:20;1.15;;;1.08;;
48767;SDS011;34933;40.968;14.538;2022-12-18T11:15:13;2.25;;;0.82;;
48767;SDS011;34933;40.968;14.538;2022-12-18T11:18:25;3.67;;;1.30;;
48767;SDS011;34933;40.968;14.538;2022-12-18T11:21:11;2.50;;;1.67;;
48767;SDS011;34933;40.968;14.538;2022-12-18T11:23:57;4.07;;;1.30;;
48767;SDS011;34933;40.968;14.538;2022-12-18T11:26:42;2.17;;;1.42;;
48767;SDS011;34933;40.968;14.538;2022-12-18T11:29:32;6.45;;;2.08;;
48767;SDS011;34933;40.968;14.538;2022-12-18T11:38:32;1.88;;;1.50;;
48767;SDS011;34933;40.968;14.538;2022-12-18T11:41:24;1.60;;;1.35;;
48767;SDS011;34933;40.968;14.538;2022-12-18T11:44:48;2.88;;;1.63;;
48767;SDS011;34933;40.968;14.538;2022-12-18T11:47:49;4.00;;;2.20;;
48767;SDS011;34933;40.968;14.538;2022-12-18T11:53:34;74.35;;;42.80;;
48767;SDS011;34933;40.968;14.538;2022-12-18T11:59:33;19.42;;;10.57;;
48767;SDS011;34933;40.968;14.538;2022-12-18T12:17:39;2.30;;;1.55;;
48767;SDS011;34933;40.968;14.538;2022-12-18T12:26:59;5.43;;;4.00;;
48767;SDS011;34933;40.968;14.538;2022-12-18T12:30:00;23.35;;;13.75;;
48767;SDS011;34933;40.968;14.538;2022-12-18T12:33:05;10.52;;;4.60;;
48767;SDS011;34933;40.968;14.538;2022-12-18T12:38:58;2.30;;;2.05;;
48767;SDS011;34933;40.968;14.538;2022-12-18T12:41:47;3.17;;;1.80;;
48767;SDS011;34933;40.968;14.538;2022-12-18T12:44:54;2.85;;;2.45;;
48767;SDS011;34933;40.968;14.538;2022-12-18T12:47:43;2.30;;;2.10;;
48767;SDS011;34933;40.968;14.538;2022-12-18T12:50:29;1.70;;;1.60;;
48767;SDS011;34933;40.968;14.538;2022-12-18T12:53:32;2.22;;;1.35;;
48767;SDS011;34933;40.968;14.538;2022-12-18T12:56:22;4.65;;;2.63;;
48767;SDS011;34933;40.968;14.538;2022-12-18T12:59:15;5.88;;;2.95;;
48767;SDS011;34933;40.968;14.538;2022-12-18T13:02:17;2.58;;;2.00;;
48767;SDS011;34933;40.968;14.538;2022-12-18T13:08:24;3.65;;;2.30;;
48767;SDS011;34933;40.968;14.538;2022-12-18T13:11:11;3.92;;;2.70;;
48767;SDS011;34933;40.968;14.538;2022-12-18T13:14:41;2.40;;;1.90;;
48767;SDS011;34933;40.968;14.538;2022-12-18T13:20:13;2.08;;;1.90;;
48767;SDS011;34933;40.968;14.538;2022-12-18T13:22:59;2.45;;;2.00;;
48767;SDS011;34933;40.968;14.538;2022-12-18T13:25:44;2.05;;;1.73;;
48767;SDS011;34933;40.968;14.538;2022-12-18T13:34:37;1.63;;;1.52;;
48767;SDS011;34933;40.968;14.538;2022-12-18T13:40:49;1.50;;;1.40;;
48767;SDS011;34933;40.968;14.538;2022-12-18T13:49:46;3.40;;;1.50;;
48767;SDS011;34933;40.968;14.538;2022-12-18T13:55:19;1.70;;;1.60;;
48767;SDS011;34933;40.968;14.538;2022-12-18T13:58:05;2.95;;;2.17;;
48767;SDS011;34933;40.968;14.538;2022-12-18T14:00:50;5.72;;;4.95;;
48767;SDS011;34933;40.968;14.538;2022-12-18T14:03:35;4.72;;;3.72;;
48767;SDS011;34933;40.968;14.538;2022-12-18T14:06:19;4.00;;;3.60;;
48767;SDS011;34933;40.968;14.538;2022-12-18T14:09:04;7.28;;;5.13;;
48767;SDS011;34933;40.968;14.538;2022-12-18T14:11:49;6.07;;;3.58;;
48767;SDS011;34933;40.968;14.538;2022-12-18T14:14:34;4.90;;;2.83;;
48767;SDS011;34933;40.968;14.538;2022-12-18T14:17:20;2.00;;;1.80;;
48767;SDS011;34933;40.968;14.538;2022-12-18T14:20:05;1.60;;;1.40;;
48767;SDS011;34933;40.968;14.538;2022-12-18T14:23:01;1.90;;;1.70;;
48767;SDS011;34933;40.968;14.538;2022-12-18T14:25:46;3.35;;;1.17;;
48767;SDS011;34933;40.968;14.538;2022-12-18T14:28:31;3.97;;;1.95;;
48767;SDS011;34933;40.968;14.538;2022-12-18T14:31:26;2.63;;;1.35;;
48767;SDS011;34933;40.968;14.538;2022-12-18T14:34:18;3.72;;;1.40;;
48767;SDS011;34933;40.968;14.538;2022-12-18T14:37:03;4.72;;;1.70;;
48767;SDS011;34933;40.968;14.538;2022-12-18T14:42:40;1.75;;;1.38;;
48767;SDS011;34933;40.968;14.538;2022-12-18T14:45:35;3.65;;;2.10;;
48767;SDS011;34933;40.968;14.538;2022-12-18T14:54:05;7.25;;;4.00;;
48767;SDS011;34933;40.968;14.538;2022-12-18T14:57:40;5.80;;;2.67;;
48767;SDS011;34933;40.968;14.538;2022-12-18T15:00:11;5.05;;;3.30;;
48767;SDS011;34933;40.968;14.538;2022-12-18T15:03:00;6.93;;;6.18;;
48767;SDS011;34933;40.968;14.538;2022-12-18T15:05:45;5.75;;;4.28;;
48767;SDS011;34933;40.968;14.538;2022-12-18T15:08:36;7.30;;;3.50;;
48767;SDS011;34933;40.968;14.538;2022-12-18T15:12:03;2.80;;;2.60;;
48767;SDS011;34933;40.968;14.538;2022-12-18T15:17:18;3.30;;;2.50;;
48767;SDS011;34933;40.968;14.538;2022-12-18T15:22:55;4.50;;;2.40;;
48767;SDS011;34933;40.968;14.538;2022-12-18T15:25:40;4.55;;;2.20;;
48767;SDS011;34933;40.968;14.538;2022-12-18T15:31:23;7.05;;;3.40;;
48767;SDS011;34933;40.968;14.538;2022-12-18T15:34:19;4.32;;;2.30;;
48767;SDS011;34933;40.968;14.538;2022-12-18T15:37:06;3.55;;;2.40;;
48767;SDS011;34933;40.968;14.538;2022-12-18T15:39:51;3.75;;;2.20;;
48767;SDS011;34933;40.968;14.538;2022-12-18T15:42:36;5.25;;;2.40;;
48767;SDS011;34933;40.968;14.538;2022-12-18T15:45:39;4.20;;;2.45;;
48767;SDS011;34933;40.968;14.538;2022-12-18T15:48:24;2.10;;;1.88;;
48767;SDS011;34933;40.968;14.538;2022-12-18T15:51:16;3.55;;;2.00;;
48767;SDS011;34933;40.968;14.538;2022-12-18T15:54:04;2.80;;;1.60;;
48767;SDS011;34933;40.968;14.538;2022-12-18T15:56:54;4.80;;;2.05;;
48767;SDS011;34933;40.968;14.538;2022-12-18T16:02:42;3.30;;;1.90;;
48767;SDS011;34933;40.968;14.538;2022-12-18T16:05:28;4.80;;;2.00;;
48767;SDS011;34933;40.968;14.538;2022-12-18T16:08:13;2.50;;;1.83;;
48767;SDS011;34933;40.968;14.538;2022-12-18T16:10:58;2.63;;;2.17;;
48767;SDS011;34933;40.968;14.538;2022-12-18T16:13:44;2.30;;;1.92;;
48767;SDS011;34933;40.968;14.538;2022-12-18T16:16:28;3.20;;;2.40;;
48767;SDS011;34933;40.968;14.538;2022-12-18T16:19:13;4.72;;;2.90;;
48767;SDS011;34933;40.968;14.538;2022-12-18T16:21:58;4.13;;;3.42;;
48767;SDS011;34933;40.968;14.538;2022-12-18T16:24:48;3.63;;;2.80;;
48767;SDS011;34933;40.968;14.538;2022-12-18T16:27:34;1.40;;;1.30;;
48767;SDS011;34933;40.968;14.538;2022-12-18T16:30:20;2.00;;;1.80;;
48767;SDS011;34933;40.968;14.538;2022-12-18T16:33:07;1.83;;;1.70;;
48767;SDS011;34933;40.968;14.538;2022-12-18T16:35:53;3.45;;;2.33;;
48767;SDS011;34933;40.968;14.538;2022-12-18T16:38:38;37.10;;;33.20;;
48767;SDS011;34933;40.968;14.538;2022-12-18T16:41:22;32.38;;;26.40;;
48767;SDS011;34933;40.968;14.538;2022-12-18T16:44:16;4.90;;;2.13;;
48767;SDS011;34933;40.968;14.538;2022-12-18T16:47:01;4.78;;;3.00;;
48767;SDS011;34933;40.968;14.538;2022-12-18T16:49:45;4.03;;;2.80;;
48767;SDS011;34933;40.968;14.538;2022-12-18T16:52:30;4.50;;;3.17;;
48767;SDS011;34933;40.968;14.538;2022-12-18T16:55:14;3.08;;;2.40;;
48767;SDS011;34933;40.968;14.538;2022-12-18T16:57:59;3.30;;;2.95;;
48767;SDS011;34933;40.968;14.538;2022-12-18T17:00:43;7.53;;;3.70;;
48767;SDS011;34933;40.968;14.538;2022-12-18T17:03:28;7.82;;;3.50;;
48767;SDS011;34933;40.968;14.538;2022-12-18T17:06:13;2.97;;;2.78;;
48767;SDS011;34933;40.968;14.538;2022-12-18T17:08:59;6.70;;;5.45;;
48767;SDS011;34933;40.968;14.538;2022-12-18T17:11:46;6.13;;;4.05;;
48767;SDS011;34933;40.968;14.538;2022-12-18T17:14:31;5.90;;;5.10;;
48767;SDS011;34933;40.968;14.538;2022-12-18T17:17:16;6.22;;;3.90;;
48767;SDS011;34933;40.968;14.538;2022-12-18T17:20:01;5.40;;;4.57;;
48767;SDS011;34933;40.968;14.538;2022-12-18T17:22:49;4.85;;;3.50;;
48767;SDS011;34933;40.968;14.538;2022-12-18T17:25:33;5.15;;;4.65;;
48767;SDS011;34933;40.968;14.538;2022-12-18T17:28:18;7.72;;;7.05;;
48767;SDS011;34933;40.968;14.538;2022-12-18T17:31:36;4.32;;;3.92;;
48767;SDS011;34933;40.968;14.538;2022-12-18T17:34:14;5.85;;;4.15;;
48767;SDS011;34933;40.968;14.538;2022-12-18T17:36:58;6.05;;;5.43;;
48767;SDS011;34933;40.968;14.538;2022-12-18T17:39:43;7.45;;;3.42;;
48767;SDS011;34933;40.968;14.538;2022-12-18T17:42:27;7.00;;;4.72;;
48767;SDS011;34933;40.968;14.538;2022-12-18T17:45:12;4.35;;;3.72;;
48767;SDS011;34933;40.968;14.538;2022-12-18T17:47:57;4.75;;;4.20;;
48767;SDS011;34933;40.968;14.538;2022-12-18T17:50:41;7.78;;;4.20;;
48767;SDS011;34933;40.968;14.538;2022-12-18T17:53:26;5.43;;;3.58;;
48767;SDS011;34933;40.968;14.538;2022-12-18T17:56:12;8.30;;;3.05;;
48767;SDS011;34933;40.968;14.538;2022-12-18T17:58:58;5.85;;;3.00;;
48767;SDS011;34933;40.968;14.538;2022-12-18T18:01:43;3.72;;;2.92;;
48767;SDS011;34933;40.968;14.538;2022-12-18T18:04:28;8.02;;;4.22;;
48767;SDS011;34933;40.968;14.538;2022-12-18T18:07:12;8.32;;;3.10;;
48767;SDS011;34933;40.968;14.538;2022-12-18T18:09:57;7.53;;;4.57;;
48767;SDS011;34933;40.968;14.538;2022-12-18T18:12:42;6.15;;;4.65;;
48767;SDS011;34933;40.968;14.538;2022-12-18T18:18:39;5.05;;;3.70;;
48767;SDS011;34933;40.968;14.538;2022-12-18T18:21:24;8.57;;;5.15;;
48767;SDS011;34933;40.968;14.538;2022-12-18T18:24:09;5.85;;;3.47;;
48767;SDS011;34933;40.968;14.538;2022-12-18T18:26:55;4.68;;;2.45;;
48767;SDS011;34933;40.968;14.538;2022-12-18T18:29:42;2.53;;;2.00;;
48767;SDS011;34933;40.968;14.538;2022-12-18T18:32:26;3.83;;;2.97;;
48767;SDS011;34933;40.968;14.538;2022-12-18T18:35:11;3.33;;;3.00;;
48767;SDS011;34933;40.968;14.538;2022-12-18T18:37:56;5.53;;;3.63;;
48767;SDS011;34933;40.968;14.538;2022-12-18T18:40:40;4.30;;;3.90;;
48767;SDS011;34933;40.968;14.538;2022-12-18T18:43:25;5.80;;;2.53;;